Time;durP1;ratioP1;P1;durP2;ratioP2;P2;SDS_P1;SDS_P2;PMS_P1;PMS_P2;Temp;Humidity;BMP_temperature;BMP_pressure;BME280_temperature;BME280_humidity;BME280_pressure;Samples;Min_cycle;Max_cycle;Signal;HPM_P1;HPM_P2
2023/12/02 00:01:51;;;;;;;4.53;1.10;;;;;;;12.81;44.28;93120.97;4887829;29;20058;-78
2023/12/02 00:04:16;;;;;;;2.97;1.17;;;;;;;12.89;44.00;93101.38;4885280;29;20507;-78
2023/12/02 00:06:41;;;;;;;7.53;1.38;;;;;;;12.98;43.41;93082.50;4881292;29;20048;-78
2023/12/02 00:09:07;;;;;;;4.40;1.00;;;;;;;13.07;43.49;93101.00;4883538;29;20056;-77
2023/12/02 00:11:32;;;;;;;4.45;1.33;;;;;;;12.99;43.29;93099.31;4887803;29;20037;-78
2023/12/02 00:13:58;;;;;;;3.45;0.90;;;;;;;13.19;42.17;93099.03;4884867;29;20120;-77
2023/12/02 00:16:24;;;;;;;6.88;1.25;;;;;;;13.26;41.91;93098.41;4899503;29;20064;-78
2023/12/02 00:18:49;;;;;;;2.75;0.90;;;;;;;13.56;41.42;93136.13;4884447;29;20037;-79
2023/12/02 00:21:17;;;;;;;6.78;1.08;;;;;;;13.48;41.32;93115.72;4887376;29;20127;-78
2023/12/02 00:23:42;;;;;;;5.50;1.02;;;;;;;13.33;41.82;93114.63;4884708;29;20133;-79
2023/12/02 00:26:08;;;;;;;1.40;0.90;;;;;;;13.46;42.20;93091.22;4885765;29;20036;-77
2023/12/02 00:28:34;;;;;;;4.28;1.52;;;;;;;13.37;42.80;93099.44;4884423;29;20370;-78
2023/12/02 00:30:59;;;;;;;4.10;1.00;;;;;;;13.38;42.53;93095.66;4887726;29;20167;-79
2023/12/02 00:33:25;;;;;;;3.20;1.30;;;;;;;13.40;41.50;93098.00;4884381;29;20489;-78
2023/12/02 00:35:50;;;;;;;3.08;1.10;;;;;;;13.14;42.04;93077.16;4886556;29;20061;-78
2023/12/02 00:38:15;;;;;;;4.03;1.27;;;;;;;13.55;41.55;93084.56;4885307;29;20040;-78
2023/12/02 00:40:41;;;;;;;4.95;1.00;;;;;;;13.50;40.48;93071.50;4886090;29;20038;-78
2023/12/02 00:43:06;;;;;;;6.75;1.00;;;;;;;13.30;41.85;93068.00;4885791;29;20056;-79
2023/12/02 00:45:32;;;;;;;5.35;1.75;;;;;;;13.27;41.28;93076.72;4886087;29;20084;-78
2023/12/02 00:47:57;;;;;;;3.28;1.23;;;;;;;13.01;42.59;93092.47;4885650;29;20036;-79
2023/12/02 00:50:23;;;;;;;4.75;1.70;;;;;;;13.01;43.87;93100.50;4899019;29;20044;-78
2023/12/02 00:52:48;;;;;;;5.55;2.55;;;;;;;12.20;46.05;93127.72;4878220;29;20035;-78
2023/12/02 00:55:14;;;;;;;9.30;3.53;;;;;;;12.27;47.04;93127.91;4886106;29;20115;-77
2023/12/02 00:57:39;;;;;;;5.53;2.55;;;;;;;11.83;47.44;93079.09;4884749;29;20875;-77
2023/12/02 01:00:05;;;;;;;3.08;1.85;;;;;;;12.27;45.66;93139.31;4883931;29;20527;-79
2023/12/02 01:02:31;;;;;;;7.10;2.50;;;;;;;12.29;45.26;93113.13;4885185;29;20098;-77
2023/12/02 01:04:56;;;;;;;12.43;1.70;;;;;;;11.97;45.22;93080.28;4884942;29;20032;-77
2023/12/02 01:07:22;;;;;;;7.07;1.88;;;;;;;12.29;45.67;93083.00;4884923;29;20056;-77
2023/12/02 01:09:47;;;;;;;3.03;1.30;;;;;;;12.71;43.74;93110.81;4883733;29;20076;-78
2023/12/02 01:12:13;;;;;;;4.80;1.30;;;;;;;12.55;41.62;93091.31;4885708;29;20162;-78
2023/12/02 01:14:38;;;;;;;5.38;1.52;;;;;;;12.81;41.49;93080.94;4884687;29;20036;-78
2023/12/02 01:17:03;;;;;;;4.38;1.08;;;;;;;12.99;40.88;93088.63;4886818;29;20036;-79
2023/12/02 01:19:29;;;;;;;9.48;2.00;;;;;;;12.91;41.80;93092.25;4882611;29;20032;-78
2023/12/02 01:21:54;;;;;;;8.88;1.80;;;;;;;13.09;41.88;93104.13;4885615;29;20095;-78
2023/12/02 01:24:20;;;;;;;4.88;1.40;;;;;;;12.95;42.50;93082.44;4883631;29;20108;-78
2023/12/02 01:26:45;;;;;;;7.28;1.35;;;;;;;12.77;44.05;93088.09;4886704;29;20031;-79
2023/12/02 01:29:11;;;;;;;5.35;1.63;;;;;;;12.70;44.62;93100.50;4882680;29;20103;-78
2023/12/02 01:31:36;;;;;;;7.78;1.75;;;;;;;12.53;45.35;93055.44;4887475;29;20025;-77
2023/12/02 01:34:02;;;;;;;4.05;1.40;;;;;;;12.76;41.79;93046.53;4896700;29;20033;-77
2023/12/02 01:36:27;;;;;;;3.97;0.93;;;;;;;12.72;41.58;93021.66;4883065;29;20393;-78
2023/12/02 01:38:52;;;;;;;3.28;1.58;;;;;;;12.70;43.64;93039.13;4883268;29;20412;-79
2023/12/02 01:41:18;;;;;;;4.28;1.55;;;;;;;12.50;44.03;93024.91;4879054;29;20047;-79
2023/12/02 01:43:44;;;;;;;5.50;1.55;;;;;;;12.54;44.43;93076.44;4882163;29;20063;-78
2023/12/02 01:46:13;;;;;;;4.78;1.60;;;;;;;12.34;44.17;93072.09;4885706;29;20820;-78
2023/12/02 01:48:38;;;;;;;6.70;1.58;;;;;;;12.33;43.47;93023.31;4886670;29;20124;-78
2023/12/02 01:51:04;;;;;;;5.32;1.13;;;;;;;12.86;41.58;93047.91;4884620;29;20041;-78
2023/12/02 01:53:30;;;;;;;6.90;1.85;;;;;;;12.92;41.81;93056.41;4885716;29;20037;-79
2023/12/02 01:55:56;;;;;;;4.82;1.92;;;;;;;12.93;41.27;93068.66;4884371;29;20028;-78
2023/12/02 01:58:21;;;;;;;1.92;1.00;;;;;;;12.74;41.23;93040.78;4889788;29;20033;-78
2023/12/02 02:00:47;;;;;;;4.03;1.40;;;;;;;12.60;43.57;93043.09;4887014;29;20049;-78
2023/12/02 02:03:12;;;;;;;4.13;1.30;;;;;;;12.63;42.12;93029.06;4884805;29;20041;-79
2023/12/02 02:05:38;;;;;;;4.15;1.17;;;;;;;12.76;41.89;93043.09;4887988;29;20496;-78
2023/12/02 02:08:04;;;;;;;4.30;1.48;;;;;;;12.65;42.19;93029.50;4898267;29;20241;-79
2023/12/02 02:10:30;;;;;;;6.75;1.80;;;;;;;12.86;42.36;93024.66;4885654;29;20020;-78
2023/12/02 02:12:56;;;;;;;2.35;1.25;;;;;;;12.86;43.88;93048.66;4888343;29;20500;-77
2023/12/02 02:15:21;;;;;;;5.30;1.40;;;;;;;12.37;45.16;93010.09;4889636;29;20049;-77
2023/12/02 02:17:47;;;;;;;4.72;1.60;;;;;;;12.57;44.21;93041.06;4889704;29;20412;-77
2023/12/02 02:20:12;;;;;;;5.22;1.50;;;;;;;12.12;46.75;92995.38;4890541;29;20524;-78
2023/12/02 02:22:38;;;;;;;7.32;2.28;;;;;;;11.96;45.31;92953.47;4891384;29;20421;-78
2023/12/02 02:25:04;;;;;;;7.68;1.50;;;;;;;12.38;45.38;92995.63;4889193;29;20032;-78
2023/12/02 02:27:31;;;;;;;9.35;2.35;;;;;;;12.07;45.26;93019.59;4888221;29;20043;-79
2023/12/02 02:29:57;;;;;;;8.13;2.97;;;;;;;12.23;45.29;93025.72;4889345;29;20131;-78
2023/12/02 02:32:22;;;;;;;9.45;2.05;;;;;;;11.96;46.65;92996.09;4887168;29;20472;-79
2023/12/02 02:34:48;;;;;;;2.35;1.20;;;;;;;11.86;45.95;93025.91;4891085;29;20035;-78
2023/12/02 02:37:14;;;;;;;6.63;1.58;;;;;;;11.72;47.52;93017.53;4887888;29;20031;-78
2023/12/02 02:39:39;;;;;;;6.15;1.67;;;;;;;11.78;48.19;93032.16;4889348;29;20455;-78
2023/12/02 02:42:08;;;;;;;5.32;2.25;;;;;;;11.52;48.19;92997.19;4887578;29;20041;-78
2023/12/02 02:44:36;;;;;;;4.85;1.73;;;;;;;11.47;48.38;93030.09;4892814;29;20523;-79
2023/12/02 02:47:02;;;;;;;4.68;1.73;;;;;;;11.50;48.83;93037.41;4885726;29;20040;-79
2023/12/02 02:49:27;;;;;;;7.97;1.83;;;;;;;11.34;48.92;93009.19;4887201;29;20032;-79
2023/12/02 02:51:54;;;;;;;2.58;1.40;;;;;;;11.63;47.09;93008.91;4888625;29;20123;-78
2023/12/02 02:54:19;;;;;;;5.47;1.60;;;;;;;11.54;45.03;92998.38;4890572;29;20064;-78
2023/12/02 02:56:44;;;;;;;10.85;2.60;;;;;;;11.84;46.70;93014.03;4891638;29;20188;-79
2023/12/02 02:59:10;;;;;;;7.82;1.40;;;;;;;11.86;45.93;93012.59;4888862;29;20108;-79
2023/12/02 03:01:38;;;;;;;4.00;1.17;;;;;;;11.51;46.82;93015.03;4890467;29;20076;-79
2023/12/02 03:04:04;;;;;;;7.57;1.60;;;;;;;11.55;47.52;93034.53;4888024;29;20040;-79
2023/12/02 03:06:29;;;;;;;6.28;2.63;;;;;;;11.24;49.11;92993.69;4890059;29;20100;-78
2023/12/02 03:08:55;;;;;;;4.15;1.90;;;;;;;11.02;49.81;93006.34;4886964;29;20141;-77
2023/12/02 03:11:20;;;;;;;5.60;1.75;;;;;;;10.42;52.07;93009.00;4885333;29;20479;-78
2023/12/02 03:13:46;;;;;;;6.78;1.90;;;;;;;10.15;52.06;93021.78;4880646;29;20567;-77
2023/12/02 03:16:11;;;;;;;22.63;9.68;;;;;;;10.32;51.46;92995.00;4890379;29;20030;-78
2023/12/02 03:18:37;;;;;;;5.20;3.15;;;;;;;10.85;48.56;93006.59;4887978;29;20045;-77
2023/12/02 03:21:02;;;;;;;5.85;2.00;;;;;;;10.97;50.10;93016.44;4888453;29;20033;-77
2023/12/02 03:23:28;;;;;;;8.27;1.77;;;;;;;10.72;50.06;93013.00;4888947;29;20868;-77
2023/12/02 03:25:53;;;;;;;8.63;2.05;;;;;;;10.38;51.21;92987.63;4887544;29;20024;-78
2023/12/02 03:28:21;;;;;;;3.90;1.80;;;;;;;10.22;52.57;93013.28;4888710;29;20020;-79
2023/12/02 03:30:46;;;;;;;4.85;1.58;;;;;;;10.13;52.10;92994.75;4888588;29;20041;-78
2023/12/02 03:33:12;;;;;;;8.60;1.77;;;;;;;10.07;52.30;92982.03;4901220;29;20043;-77
2023/12/02 03:35:37;;;;;;;6.13;2.05;;;;;;;9.94;53.41;92993.72;4890530;29;20029;-77
2023/12/02 03:38:02;;;;;;;3.92;1.23;;;;;;;10.24;49.04;92969.31;4886246;29;20032;-79
2023/12/02 03:40:28;;;;;;;6.05;2.05;;;;;;;11.10;50.28;93020.66;4888721;29;20025;-79
2023/12/02 03:42:53;;;;;;;12.07;2.65;;;;;;;10.84;50.83;93007.69;4887952;29;20033;-78
2023/12/02 03:45:19;;;;;;;4.57;1.70;;;;;;;11.16;49.97;93036.03;4888332;29;20092;-78
2023/12/02 03:47:44;;;;;;;7.75;2.15;;;;;;;11.25;50.02;93059.13;4887880;29;20104;-78
2023/12/02 03:50:10;;;;;;;6.25;1.90;;;;;;;10.89;51.02;93039.41;4888142;29;20052;-78
2023/12/02 03:52:36;;;;;;;5.93;2.33;;;;;;;10.39;52.92;93030.94;4890482;29;20020;-78
2023/12/02 03:55:02;;;;;;;3.22;1.50;;;;;;;10.84;52.10;93049.47;4887215;29;20041;-77
2023/12/02 03:57:27;;;;;;;11.00;1.88;;;;;;;11.25;50.63;93061.78;4885483;29;20044;-78
2023/12/02 03:59:53;;;;;;;10.45;2.80;;;;;;;11.04;50.51;93020.09;4887126;29;20428;-79
2023/12/02 04:02:18;;;;;;;9.10;2.30;;;;;;;10.91;51.55;93021.19;4888327;29;20123;-77
2023/12/02 04:04:44;;;;;;;5.32;1.77;;;;;;;11.42;50.43;93041.00;4883355;29;20400;-79
2023/12/02 04:07:09;;;;;;;5.38;1.98;;;;;;;11.52;48.94;93039.78;4889174;29;20151;-79
2023/12/02 04:09:35;;;;;;;6.53;1.80;;;;;;;11.47;50.29;93019.47;4887514;29;20039;-78
2023/12/02 04:12:00;;;;;;;4.22;2.25;;;;;;;11.62;49.97;93025.22;4902773;29;20039;-78
2023/12/02 04:14:25;;;;;;;4.47;1.92;;;;;;;11.32;50.42;93011.41;4886459;29;20044;-79
2023/12/02 04:16:51;;;;;;;6.25;1.85;;;;;;;11.82;49.93;93009.06;4884903;29;20041;-78
2023/12/02 04:19:17;;;;;;;4.25;1.55;;;;;;;11.59;50.03;93013.34;4883759;29;20088;-78
2023/12/02 04:21:44;;;;;;;9.10;2.00;;;;;;;10.97;51.20;93001.25;4881547;29;20044;-79
2023/12/02 04:24:10;;;;;;;8.20;1.70;;;;;;;10.54;52.68;92977.13;4885766;29;20105;-78
2023/12/02 04:26:36;;;;;;;7.72;2.00;;;;;;;10.43;52.49;92971.47;4885332;29;20497;-78
2023/12/02 04:29:02;;;;;;;6.82;2.78;;;;;;;10.67;52.02;92965.38;4885553;29;20315;-78
2023/12/02 04:31:27;;;;;;;4.55;1.65;;;;;;;10.92;49.63;92958.91;4884337;29;20056;-77
2023/12/02 04:33:53;;;;;;;7.10;1.50;;;;;;;10.92;48.53;92944.84;4885437;29;20044;-78
2023/12/02 04:36:19;;;;;;;6.38;1.63;;;;;;;10.88;49.78;92989.19;4887908;29;20397;-78
2023/12/02 04:38:45;;;;;;;3.80;1.70;;;;;;;10.99;50.17;92976.97;4888133;29;20033;-78
2023/12/02 04:41:10;;;;;;;6.85;2.72;;;;;;;10.37;52.18;92932.91;4885164;29;20040;-78
2023/12/02 04:43:36;;;;;;;8.45;1.90;;;;;;;10.28;52.26;92938.31;4887460;29;20024;-77
2023/12/02 04:46:01;;;;;;;4.03;1.88;;;;;;;10.26;52.26;92926.47;4884383;29;20044;-78
2023/12/02 04:48:27;;;;;;;8.75;2.13;;;;;;;10.19;51.79;92894.34;4884802;29;20629;-79
2023/12/02 04:50:52;;;;;;;9.43;2.40;;;;;;;10.30;52.54;92961.91;4887267;29;20028;-78
2023/12/02 04:53:18;;;;;;;5.50;1.88;;;;;;;10.35;52.28;92992.81;4885507;29;20040;-77
2023/12/02 04:55:44;;;;;;;7.25;1.98;;;;;;;10.21;53.28;92938.09;4888776;29;20466;-77
2023/12/02 04:58:09;;;;;;;7.78;2.83;;;;;;;10.03;53.48;92949.25;4887515;29;20128;-77
2023/12/02 05:00:34;;;;;;;7.97;1.65;;;;;;;10.41;48.87;92931.16;4886925;29;20059;-78
2023/12/02 05:03:00;;;;;;;8.43;1.60;;;;;;;10.42;50.72;92932.69;4883190;29;20074;-77
2023/12/02 05:05:26;;;;;;;3.28;1.60;;;;;;;10.67;49.24;92954.72;4888607;29;20043;-77
2023/12/02 05:07:51;;;;;;;9.40;1.85;;;;;;;10.74;49.48;92958.41;4885262;29;20036;-79
2023/12/02 05:10:17;;;;;;;4.13;1.88;;;;;;;10.47;49.47;92915.75;4888080;29;20848;-78
2023/12/02 05:12:42;;;;;;;4.45;2.13;;;;;;;10.79;48.87;92938.00;4883325;29;20032;-77
2023/12/02 05:15:11;;;;;;;5.38;2.42;;;;;;;11.11;48.59;92974.28;4886803;29;20067;-77
2023/12/02 05:17:36;;;;;;;8.27;1.90;;;;;;;11.26;46.93;92962.94;4898052;29;20567;-79
2023/12/02 05:20:02;;;;;;;9.98;2.35;;;;;;;10.89;47.89;92910.94;4885211;29;20091;-79
2023/12/02 05:22:28;;;;;;;11.60;1.92;;;;;;;10.80;48.05;92921.72;4886644;29;20080;-78
2023/12/02 05:24:53;;;;;;;6.85;1.60;;;;;;;10.66;48.30;92926.59;4883860;29;20044;-78
2023/12/02 05:27:19;;;;;;;6.70;2.28;;;;;;;10.48;49.13;92922.63;4884923;29;20902;-79
2023/12/02 05:29:44;;;;;;;9.85;2.15;;;;;;;10.44;51.24;92927.06;4885235;29;20037;-78
2023/12/02 05:32:10;;;;;;;7.50;2.10;;;;;;;10.36;50.75;92928.72;4885708;29;20060;-79
2023/12/02 05:34:36;;;;;;;6.72;2.58;;;;;;;10.00;51.16;92924.13;4900956;29;20028;-78
2023/12/02 05:37:02;;;;;;;6.82;2.38;;;;;;;10.33;50.94;92943.41;4885944;29;20044;-79
2023/12/02 05:39:28;;;;;;;14.18;4.57;;;;;;;10.00;51.82;92952.56;4885473;29;20705;-79
2023/12/02 05:41:59;;;;;;;6.65;3.47;;;;;;;9.74;51.09;92927.06;4887199;29;20040;-79
2023/12/02 05:44:24;;;;;;;11.55;3.55;;;;;;;9.38;50.72;92845.47;4886873;29;20044;-78
2023/12/02 05:46:50;;;;;;;13.40;2.63;;;;;;;10.26;50.34;92940.53;4888473;29;20032;-77
2023/12/02 05:49:16;;;;;;;7.63;4.53;;;;;;;10.20;50.04;92936.53;4890646;29;20396;-78
2023/12/02 05:51:41;;;;;;;6.82;3.03;;;;;;;10.27;49.64;92928.78;4891222;29;20044;-78
2023/12/02 05:54:08;;;;;;;8.65;2.30;;;;;;;10.56;50.68;92930.47;4894281;29;20047;-78
2023/12/02 05:56:33;;;;;;;6.57;2.58;;;;;;;10.21;51.16;92892.94;4890901;29;20048;-78
2023/12/02 05:58:59;;;;;;;5.97;1.70;;;;;;;10.52;50.63;92926.16;4893966;29;20048;-79
2023/12/02 06:01:24;;;;;;;8.25;3.03;;;;;;;10.24;50.87;92875.53;4890018;29;20051;-78
2023/12/02 06:03:50;;;;;;;8.10;2.28;;;;;;;10.63;49.97;92927.25;4881191;29;20040;-78
2023/12/02 06:06:16;;;;;;;7.22;2.00;;;;;;;10.39;50.56;92892.72;4890231;29;20047;-78
2023/12/02 06:08:44;;;;;;;5.88;2.08;;;;;;;10.52;50.24;92920.84;4898891;29;20139;-78
2023/12/02 06:11:10;;;;;;;9.18;2.00;;;;;;;10.61;49.75;92945.44;4897455;29;20040;-78
2023/12/02 06:13:35;;;;;;;4.80;2.22;;;;;;;10.85;49.87;92964.03;4886472;29;20029;-79
2023/12/02 06:16:01;;;;;;;6.45;1.95;;;;;;;10.71;50.44;92979.53;4894304;29;20052;-78
2023/12/02 06:18:27;;;;;;;11.40;2.92;;;;;;;10.55;51.77;92971.47;4889879;29;20827;-78
2023/12/02 06:20:57;;;;;;;6.57;2.90;;;;;;;10.94;51.00;92991.28;4892254;29;20533;-79
2023/12/02 06:23:23;;;;;;;5.57;2.83;;;;;;;11.32;50.42;92987.44;4890715;29;20079;-78
2023/12/02 06:25:49;;;;;;;7.07;2.08;;;;;;;11.20;50.44;92969.59;4891610;29;20132;-78
2023/12/02 06:28:15;;;;;;;7.20;1.95;;;;;;;10.71;51.02;92955.59;4893465;29;20481;-79
2023/12/02 06:30:40;;;;;;;13.50;2.80;;;;;;;10.46;52.35;92973.47;4892665;29;20049;-78
2023/12/02 06:33:06;;;;;;;7.22;2.65;;;;;;;10.04;53.87;92964.06;4891437;29;20368;-77
2023/12/02 06:35:33;;;;;;;8.15;3.47;;;;;;;10.81;52.80;93011.00;4891277;29;20096;-78
2023/12/02 06:37:58;;;;;;;16.60;3.22;;;;;;;10.11;53.31;92949.16;4890782;29;20040;-79
2023/12/02 06:40:23;;;;;;;5.30;2.67;;;;;;;10.26;53.57;92980.41;4892348;29;20633;-78
2023/12/02 06:42:49;;;;;;;5.72;1.90;;;;;;;10.30;53.51;92989.25;4892495;29;20873;-79
2023/12/02 06:45:14;;;;;;;9.10;2.00;;;;;;;9.98;53.80;92966.16;4890931;29;20617;-77
2023/12/02 06:47:40;;;;;;;5.90;2.15;;;;;;;10.04;53.58;92978.13;4889670;29;20117;-77
2023/12/02 06:50:07;;;;;;;6.22;1.60;;;;;;;10.17;52.20;92982.34;4889471;29;20047;-78
2023/12/02 06:52:32;;;;;;;6.10;2.22;;;;;;;10.40;52.68;92987.31;4891595;29;20032;-80
2023/12/02 06:54:58;;;;;;;5.53;2.03;;;;;;;10.56;51.84;92974.91;4891243;29;20040;-79
2023/12/02 06:57:26;;;;;;;11.75;2.80;;;;;;;10.43;51.82;92995.38;4889207;29;20052;-78
2023/12/02 06:59:51;;;;;;;5.38;2.20;;;;;;;10.58;52.04;92981.44;4888075;29;20335;-80
2023/12/02 07:02:17;;;;;;;4.88;2.65;;;;;;;10.84;51.76;92983.75;4902624;29;20420;-78
2023/12/02 07:04:45;;;;;;;4.85;2.20;;;;;;;11.18;51.08;92975.28;4888467;29;20032;-78
2023/12/02 07:07:11;;;;;;;5.90;2.13;;;;;;;11.05;51.54;92987.03;4887515;29;20013;-78
2023/12/02 07:09:37;;;;;;;7.80;3.00;;;;;;;11.27;51.12;92969.81;4888020;29;20037;-79
2023/12/02 07:12:03;;;;;;;8.52;1.70;;;;;;;10.93;49.77;92983.63;4901436;29;20408;-78
2023/12/02 07:14:28;;;;;;;4.85;1.70;;;;;;;10.98;49.88;93004.69;4884006;29;20048;-78
2023/12/02 07:16:54;;;;;;;8.93;2.85;;;;;;;10.83;49.83;92950.28;4882067;29;20066;-78
2023/12/02 07:19:19;;;;;;;4.18;2.17;;;;;;;10.91;49.20;92968.00;4900678;29;20111;-78
2023/12/02 07:21:45;;;;;;;7.72;3.33;;;;;;;10.97;47.66;92987.16;4882729;29;20057;-78
2023/12/02 07:24:10;;;;;;;13.02;8.15;;;;;;;10.91;48.41;92973.31;4889462;29;20063;-78
2023/12/02 07:26:36;;;;;;;6.20;2.33;;;;;;;10.76;49.00;92934.09;4903208;29;20155;-77
2023/12/02 07:29:01;;;;;;;4.10;1.50;;;;;;;10.91;45.19;92954.69;4884501;29;20036;-79
2023/12/02 07:31:27;;;;;;;2.90;1.30;;;;;;;11.20;44.05;92923.63;4886795;29;20488;-78
2023/12/02 07:33:53;;;;;;;6.88;2.65;;;;;;;11.64;41.55;92965.16;4886812;29;20678;-78
2023/12/02 07:36:18;;;;;;;7.55;1.70;;;;;;;11.47;45.56;92974.19;4886869;29;20040;-78
2023/12/02 07:38:44;;;;;;;7.03;2.10;;;;;;;10.65;48.53;92922.41;4882918;29;20403;-78
2023/12/02 07:41:09;;;;;;;5.20;1.95;;;;;;;11.12;48.18;93013.88;4903287;29;20396;-77
2023/12/02 07:43:35;;;;;;;7.00;2.33;;;;;;;11.42;48.33;93008.25;4901989;29;20060;-79
2023/12/02 07:46:00;;;;;;;5.30;2.00;;;;;;;10.87;49.80;92988.41;4889474;29;20036;-78
2023/12/02 07:48:26;;;;;;;4.97;1.85;;;;;;;10.87;47.56;92991.06;4886529;29;20414;-79
2023/12/02 07:50:51;;;;;;;7.90;2.38;;;;;;;11.31;49.18;92978.66;4886475;29;20047;-78
2023/12/02 07:53:17;;;;;;;6.45;2.22;;;;;;;10.72;49.61;92959.81;4887648;29;20028;-78
2023/12/02 07:55:42;;;;;;;8.95;2.35;;;;;;;10.70;49.12;92924.81;4882684;29;20032;-79
2023/12/02 07:58:08;;;;;;;11.25;3.35;;;;;;;10.56;50.10;92945.66;4888364;29;20023;-79
2023/12/02 08:00:33;;;;;;;8.48;2.55;;;;;;;10.22;50.34;92929.00;4885548;29;20060;-79
2023/12/02 08:02:59;;;;;;;19.35;5.00;;;;;;;10.46;50.45;92936.25;4873090;29;20657;-78
2023/12/02 08:05:24;;;;;;;5.18;1.85;;;;;;;10.26;51.12;92948.50;4885427;29;20044;-77
2023/12/02 08:07:51;;;;;;;8.15;2.63;;;;;;;10.21;51.58;92967.34;4885792;29;20025;-78
2023/12/02 08:10:17;;;;;;;9.00;2.40;;;;;;;10.09;51.64;92943.38;4886881;29;20034;-78
2023/12/02 08:12:42;;;;;;;5.25;2.20;;;;;;;10.44;49.98;92973.00;4897787;29;20036;-78
2023/12/02 08:15:08;;;;;;;10.10;2.53;;;;;;;10.38;50.79;92970.91;4887061;29;20039;-79
2023/12/02 08:17:34;;;;;;;9.60;2.92;;;;;;;10.61;50.73;92948.09;4887394;29;20056;-77
2023/12/02 08:20:00;;;;;;;5.00;2.38;;;;;;;10.52;50.40;92934.91;4885746;29;20036;-77
2023/12/02 08:22:25;;;;;;;5.32;2.60;;;;;;;10.32;49.42;92939.19;4888652;29;20437;-77
2023/12/02 08:24:52;;;;;;;5.75;3.22;;;;;;;10.26;49.39;92948.50;4885791;29;20055;-79
2023/12/02 08:27:17;;;;;;;9.02;2.95;;;;;;;10.60;48.81;92941.22;4888777;29;20032;-78
2023/12/02 08:29:43;;;;;;;5.32;2.30;;;;;;;10.76;46.89;92934.09;4890056;29;20115;-78
2023/12/02 08:32:08;;;;;;;7.57;2.30;;;;;;;10.85;44.93;92918.81;4885527;29;20036;-80
2023/12/02 08:34:34;;;;;;;9.13;2.20;;;;;;;11.01;44.89;92919.66;4883430;29;20400;-79
2023/12/02 08:36:59;;;;;;;8.63;2.20;;;;;;;11.12;43.42;92891.47;4899399;29;20036;-78
2023/12/02 08:39:25;;;;;;;2.88;1.65;;;;;;;11.52;42.27;92933.28;4887318;29;20363;-78
2023/12/02 08:41:51;;;;;;;6.13;2.53;;;;;;;11.53;44.82;92929.50;4901116;29;20037;-79
2023/12/02 08:44:17;;;;;;;8.60;2.45;;;;;;;11.41;44.53;92919.63;4901131;29;20400;-79
2023/12/02 08:46:42;;;;;;;9.90;3.08;;;;;;;10.97;47.58;92937.41;4898095;29;20120;-79
2023/12/02 08:49:08;;;;;;;5.68;2.20;;;;;;;11.00;46.47;92959.91;4883550;29;20404;-80
2023/12/02 08:51:34;;;;;;;10.07;3.20;;;;;;;10.95;46.96;92952.16;4911641;29;20135;-78
2023/12/02 08:54:01;;;;;;;8.68;4.43;;;;;;;11.21;46.91;92965.06;4894751;29;20056;-78
2023/12/02 08:56:27;;;;;;;11.65;4.10;;;;;;;11.02;48.29;92984.28;4893259;29;20048;-78
2023/12/02 08:58:54;;;;;;;5.68;2.22;;;;;;;10.72;48.26;92949.19;4909707;29;20115;-78
2023/12/02 09:01:19;;;;;;;8.90;3.47;;;;;;;10.87;48.47;92956.47;4893077;29;20080;-79
2023/12/02 09:03:45;;;;;;;24.00;4.45;;;;;;;10.81;49.19;92923.25;4888715;29;20036;-78
2023/12/02 09:06:10;;;;;;;9.02;3.03;;;;;;;10.97;49.17;92945.38;4893413;29;20545;-79
2023/12/02 09:08:36;;;;;;;8.25;3.13;;;;;;;10.80;49.35;92956.28;4906424;29;20044;-78
2023/12/02 09:11:02;;;;;;;10.25;2.65;;;;;;;10.60;50.67;92926.06;4889874;29;20119;-77
2023/12/02 09:13:42;;;;;;;9.93;3.95;;;;;;;10.78;50.06;92931.13;4884943;29;20404;-76
2023/12/02 09:16:22;;;;;;;4.10;2.67;;;;;;;11.17;49.56;92943.69;4901966;29;20039;-78
2023/12/02 09:18:48;;;;;;;8.43;2.85;;;;;;;11.16;48.54;92977.50;4892805;29;20401;-79
2023/12/02 09:21:29;;;;;;;14.80;6.45;;;;;;;11.30;48.01;92963.03;4891268;29;20044;-78
2023/12/02 09:24:02;;;;;;;7.63;3.20;;;;;;;11.33;48.46;92965.03;4887180;29;20075;-77
2023/12/02 09:26:40;;;;;;;12.27;3.63;;;;;;;11.53;47.88;92932.16;4886525;29;20112;-78
2023/12/02 09:29:06;;;;;;;9.13;3.47;;;;;;;11.70;48.44;92923.84;4886903;29;21136;-76
2023/12/02 09:31:32;;;;;;;8.65;3.08;;;;;;;11.99;48.01;92925.34;4887957;29;20024;-79
2023/12/02 09:34:02;;;;;;;8.18;2.70;;;;;;;12.20;47.22;92936.56;4886414;29;20072;-77
2023/12/02 09:36:36;;;;;;;8.15;3.08;;;;;;;12.00;47.93;92926.91;4881604;29;20040;-78
2023/12/02 09:39:17;;;;;;;11.50;3.15;;;;;;;12.17;46.59;92931.91;4883315;29;20037;-78
2023/12/02 09:41:50;;;;;;;9.32;3.10;;;;;;;12.04;46.45;92949.88;4888093;29;20130;-77
2023/12/02 09:44:29;;;;;;;5.88;2.38;;;;;;;12.19;44.33;92913.69;4897361;29;20127;-78
2023/12/02 09:47:14;;;;;;;9.57;2.75;;;;;;;12.15;45.87;92904.06;4884246;29;20028;-78
2023/12/02 09:50:11;;;;;;;11.73;3.03;;;;;;;12.48;44.07;92915.13;4881057;29;20036;-79
2023/12/02 09:52:54;;;;;;;6.20;2.85;;;;;;;12.68;43.88;92914.09;4888046;29;20116;-78
2023/12/02 09:55:34;;;;;;;5.78;2.85;;;;;;;12.90;43.79;92918.00;4886540;29;20385;-78
2023/12/02 09:58:18;;;;;;;9.27;2.25;;;;;;;12.89;42.39;92897.78;4884564;29;20052;-78
2023/12/02 10:00:59;;;;;;;7.40;2.30;;;;;;;12.64;41.90;92902.56;4885151;29;20040;-78
2023/12/02 10:03:47;;;;;;;9.50;3.35;;;;;;;12.92;41.19;92890.97;4886361;29;20127;-77
2023/12/02 10:06:31;;;;;;;5.60;1.77;;;;;;;13.01;39.18;92880.84;4881513;29;20032;-79
2023/12/02 10:09:10;;;;;;;8.80;1.80;;;;;;;13.15;36.51;92881.16;4885138;29;20040;-79
2023/12/02 10:11:43;;;;;;;5.63;1.13;;;;;;;13.52;36.04;92879.59;4886614;29;20041;-79
2023/12/02 10:14:11;;;;;;;8.05;2.05;;;;;;;13.76;35.57;92881.22;4885923;29;20041;-76
2023/12/02 10:16:38;;;;;;;6.82;1.48;;;;;;;13.69;36.49;92844.44;4888303;29;20089;-78
2023/12/02 10:19:07;;;;;;;10.20;1.55;;;;;;;13.88;34.59;92857.00;4885417;29;20544;-78
2023/12/02 10:21:37;;;;;;;9.45;2.80;;;;;;;13.74;38.31;92870.88;4885249;29;20602;-78
2023/12/02 10:24:09;;;;;;;5.15;1.10;;;;;;;14.28;32.90;92859.16;4882110;29;20045;-78
2023/12/02 10:26:53;;;;;;;6.15;2.03;;;;;;;14.41;34.06;92841.81;4884629;29;20036;-79
2023/12/02 10:29:45;;;;;;;9.02;1.40;;;;;;;14.63;32.65;92832.19;4885837;29;20096;-78
2023/12/02 10:33:03;;;;;;;6.03;1.10;;;;;;;14.56;32.91;92810.69;4886690;29;20040;-79
2023/12/02 10:35:34;;;;;;;5.80;1.00;;;;;;;14.89;31.09;92807.31;4889666;29;20135;-78
2023/12/02 10:38:11;;;;;;;15.48;1.27;;;;;;;14.98;30.33;92807.78;4902471;29;20096;-78
2023/12/02 10:40:36;;;;;;;4.20;1.10;;;;;;;15.10;30.18;92822.88;4892097;29;20110;-79
2023/12/02 10:43:10;;;;;;;6.68;1.42;;;;;;;15.12;30.75;92826.69;4885794;29;20051;-78
2023/12/02 10:45:41;;;;;;;5.70;1.10;;;;;;;15.02;30.75;92824.66;4902555;29;20040;-77
2023/12/02 10:48:11;;;;;;;5.63;1.30;;;;;;;15.17;30.33;92818.34;4901151;29;20036;-80
2023/12/02 10:50:39;;;;;;;5.50;1.40;;;;;;;15.06;31.71;92806.72;4890453;29;20041;-78
2023/12/02 10:53:04;;;;;;;7.65;2.30;;;;;;;15.36;29.32;92820.84;4888610;29;20212;-78
2023/12/02 10:55:33;;;;;;;10.05;1.60;;;;;;;15.17;30.08;92818.34;4886904;29;20024;-79
2023/12/02 10:58:03;;;;;;;1.77;0.80;;;;;;;15.20;29.82;92817.63;4889497;29;20036;-79
2023/12/02 11:00:34;;;;;;;6.28;1.02;;;;;;;15.19;29.84;92781.28;4891364;29;20108;-78
2023/12/02 11:03:07;;;;;;;5.35;1.40;;;;;;;15.37;29.88;92805.56;4887520;29;20527;-79
2023/12/02 11:05:42;;;;;;;7.43;1.30;;;;;;;14.99;31.29;92812.78;4890078;29;20128;-78
2023/12/02 11:08:19;;;;;;;7.47;1.20;;;;;;;15.07;31.14;92794.88;4888064;29;20040;-79
2023/12/02 11:10:55;;;;;;;7.95;1.27;;;;;;;15.21;32.01;92768.25;4895305;29;20345;-80
2023/12/02 11:13:23;;;;;;;3.78;1.15;;;;;;;15.04;31.25;92787.59;4916968;29;20100;-79
2023/12/02 11:16:32;;;;;;;6.75;1.50;;;;;;;14.96;30.59;92772.59;4898596;29;20123;-78
2023/12/02 11:18:57;;;;;;;4.78;1.27;;;;;;;15.12;31.23;92772.38;4901837;29;20036;-78
2023/12/02 11:21:46;;;;;;;7.88;1.10;;;;;;;15.28;30.63;92752.28;4900570;29;20487;-78
2023/12/02 11:24:26;;;;;;;8.10;1.17;;;;;;;15.26;30.67;92735.78;4884602;29;20159;-76
2023/12/02 11:27:07;;;;;;;5.93;1.60;;;;;;;14.99;31.26;92707.59;4887037;29;20112;-76
2023/12/02 11:30:07;;;;;;;10.77;2.20;;;;;;;15.18;31.51;92749.50;4888137;29;20136;-76
2023/12/02 11:32:50;;;;;;;13.00;1.40;;;;;;;15.00;30.86;92762.69;4884774;29;20531;-78
2023/12/02 11:35:19;;;;;;;6.22;0.77;;;;;;;15.04;31.80;92748.22;4886509;29;20048;-77